Home > Products > Valid Products > MTR

000
SAUS44 KLCH 252254
MTRP92
METAR KP92 252253Z AUTO 24003KT 23/18 A3008 RMK AO1 SLP185 T02280178





000
SAUS44 KLCH 252154
MTRP92
METAR KP92 252153Z AUTO 21003KT 24/17 A3008 RMK AO1 SLP187 T02390167





000
SAUS44 KLCH 252054
MTRP92
METAR KP92 252053Z AUTO VRB03KT 23/16 A3009 RMK AO1 SLP188 T02330161
56015





000
SAUS44 KLCH 251954
MTRP92
METAR KP92 251953Z AUTO VRB04KT 23/16 A3009 RMK AO1 SLP190 T02280156





000
SAUS44 KLCH 251854
MTRP92
METAR KP92 251853Z AUTO 26004KT 23/15 A3011 RMK AO1 SLP196 T02330150





000
SAUS44 KLCH 251854
MTRP92
METAR KP92 251853Z AUTO 26004KT 23/15 A3011 RMK AO1 SLP196 T02330150





000
SAUS44 KLCH 251754
MTRP92
METAR KP92 251753Z AUTO VRB03KT 23/15 A3013 RMK AO1 SLP203 T02330150
10250 20128 58010





000
SAUS44 KLCH 251754
MTRP92
METAR KP92 251753Z AUTO VRB03KT 23/15 A3013 RMK AO1 SLP203 T02330150
10250 20128 58010





000
SAUS44 KLCH 251654
MTRP92
METAR KP92 251653Z AUTO VRB04KT 25/12 A3015 RMK AO1 SLP208 T02500117





000
SAUS44 KLCH 251654
MTRP92
METAR KP92 251653Z AUTO VRB04KT 25/12 A3015 RMK AO1 SLP208 T02500117





000
SAUS44 KLCH 251554
MTRP92
METAR KP92 251553Z AUTO VRB04KT 23/11 A3016 RMK AO1 SLP213 T02280111





000
SAUS44 KLCH 251454
MTRP92
METAR KP92 251453Z AUTO VRB05KT 19/12 A3016 RMK AO1 SLP213 T01940117
52010





000
SAUS44 KLCH 251355
MTRP92
METAR KP92 251353Z AUTO 00000KT 17/11 A3015 RMK AO1 SLP210 T01720111





000
SAUS44 KLCH 251254
MTRP92
METAR KP92 251253Z AUTO 00000KT 13/11 A3014 RMK AO1 SLP206 T01280111





000
SAUS44 KLCH 251155
MTRP92
METAR KP92 251153Z AUTO 00000KT 13/11 A3013 RMK AO1 SLP203 T01330106
10161 20133 53012





000
SAUS44 KLCH 251155
MTRP92
METAR KP92 251153Z AUTO 00000KT 13/11 A3013 RMK AO1 SLP203 T01330106
10161 20133 53012





000
SAUS44 KLCH 251054
MTRP92
METAR KP92 251053Z AUTO VRB04KT 14/10 A3012 RMK AO1 SLP200 T01390100





000
SAUS44 KLCH 251054
MTRP92
METAR KP92 251053Z AUTO VRB04KT 14/10 A3012 RMK AO1 SLP200 T01390100





000
SAUS44 KLCH 250954
MTRP92
METAR KP92 250953Z AUTO 00000KT 13/11 A3010 RMK AO1 SLP193 T01330111





000
SAUS44 KLCH 250855
MTRP92
METAR KP92 250853Z AUTO 00000KT 14/11 A3010 RMK AO1 SLP191 T01390111
58004





000
SAUS44 KLCH 250754
MTRP92
METAR KP92 250753Z AUTO 01003KT 14/11 A3010 RMK AO1 SLP192 T01440106





000
SAUS44 KLCH 250655
MTRP92
METAR KP92 250653Z AUTO 00000KT 15/11 A3011 RMK AO1 SLP195 T01500111





000
SAUS44 KLCH 250554
MTRP92
METAR KP92 250553Z AUTO 00000KT 16/11 A3011 RMK AO1 SLP194 T01610111
10194 20161 402500128 55000





000
SAUS44 KLCH 250454
MTRP92
METAR KP92 250453Z AUTO 36004KT 17/11 A3010 RMK AO1 SLP192 T01670111





000
SAUS44 KLCH 250354
MTRP92
METAR KP92 250353Z AUTO 00000KT 17/12 A3010 RMK AO1 SLP193 T01670117





000
SAUS44 KLCH 250354
MTRP92
METAR KP92 250353Z AUTO 00000KT 17/12 A3010 RMK AO1 SLP193 T01670117





000
SAUS44 KLCH 250254
MTRP92
METAR KP92 250253Z AUTO 00000KT 17/12 A3011 RMK AO1 SLP195 T01720122
51011





000
SAUS44 KLCH 250155
MTRP92
METAR KP92 250153Z AUTO 36003KT 18/12 A3010 RMK AO1 SLP192 T01830117





000
SAUS44 KLCH 250055
MTRP92
METAR KP92 250053Z AUTO 00000KT 19/12 A3009 RMK AO1 SLP189 T01940117





000
SAUS44 KLCH 242354
MTRP92
METAR KP92 242353Z AUTO 00000KT 19/12 A3008 RMK AO1 SLP184 T01940117
10250 20194 53013





000
SAUS44 KLCH 242254
MTRP92
METAR KP92 242253Z AUTO 35004KT 23/11 A3006 RMK AO1 SLP179 T02280106





000
SAUS44 KLCH 242154
MTRP92
METAR KP92 242153Z AUTO VRB04KT 24/10 A3005 RMK AO1 SLP174 T02440100





000
SAUS44 KLCH 242054
MTRP92
METAR KP92 242053Z AUTO VRB06KT 24/10 A3004 RMK AO1 SLP171 T02440100
56016





000
SAUS44 KLCH 241955
MTRP92
METAR KP92 241953Z AUTO VRB05KT 25/10 A3005 RMK AO1 SLP174 T02500100





000
SAUS44 KLCH 241955
MTRP92
METAR KP92 241953Z AUTO VRB05KT 25/10 A3005 RMK AO1 SLP174 T02500100





000
SAUS44 KLCH 241854
MTRP92
METAR KP92 241853Z AUTO VRB04KT 25/10 A3006 RMK AO1 SLP180 T02500100





000
SAUS44 KLCH 241754
MTRP92
METAR KP92 241753Z AUTO 07004KT 23/09 A3009 RMK AO1 SLP187 T02330094
10233 20128 58014





000
SAUS44 KLCH 241654
MTRP92
METAR KP92 241653Z AUTO VRB04KT 22/10 A3011 RMK AO1 SLP196 T02220100





000
SAUS44 KLCH 241554
MTRP92
METAR KP92 241553Z AUTO VRB03KT 21/13 A3012 RMK AO1 SLP200 T02110128





000
SAUS44 KLCH 241554
MTRP92
METAR KP92 241553Z AUTO VRB03KT 21/13 A3012 RMK AO1 SLP200 T02110128





000
SAUS44 KLCH 241454
MTRP92
METAR KP92 241453Z AUTO VRB03KT 18/12 A3013 RMK AO1 SLP202 T01830122
53013





000
SAUS44 KLCH 241354
MTRP92
METAR KP92 241353Z AUTO VRB05KT 16/12 A3012 RMK AO1 SLP197 T01560122





000
SAUS44 KLCH 241254
MTRP92
METAR KP92 241253Z AUTO VRB03KT 13/12 A3010 RMK AO1 SLP191 T01330117





000
SAUS44 KLCH 241154
MTRP92
METAR KP92 241153Z AUTO VRB03KT 13/11 A3009 RMK AO1 SLP189 T01280111
10156 20128 53003





000
SAUS44 KLCH 241054
MTRP92
METAR KP92 241053Z AUTO VRB03KT 13/11 A3008 RMK AO1 SLP185 T01330111





000
SAUS44 KLCH 241054
MTRP92
METAR KP92 241053Z AUTO VRB03KT 13/11 A3008 RMK AO1 SLP185 T01330111





000
SAUS44 KLCH 240954
MTRP92
METAR KP92 240953Z AUTO VRB03KT 14/11 A3008 RMK AO1 SLP185 T01390111





000
SAUS44 KLCH 240854
MTRP92
METAR KP92 240853Z AUTO VRB04KT 14/12 A3008 RMK AO1 SLP186 T01440117
51005





000
SAUS44 KLCH 240754
MTRP92
METAR KP92 240753Z AUTO VRB03KT 14/12 A3008 RMK AO1 SLP184 T01440122





000
SAUS44 KLCH 240654
MTRP92
METAR KP92 240653Z AUTO 01004KT 15/12 A3008 RMK AO1 SLP184 T01500122





000
SAUS44 KLCH 240555
MTRP92
METAR KP92 240553Z AUTO VRB03KT 16/13 A3007 RMK AO1 SLP182 T01560128
10206 20156 402560139 58005





000
SAUS44 KLCH 240455
MTRP92
METAR KP92 240453Z AUTO VRB03KT 16/13 A3008 RMK AO1 SLP186 T01610128





000
SAUS44 KLCH 240455
MTRP92
METAR KP92 240453Z AUTO VRB03KT 16/13 A3008 RMK AO1 SLP186 T01610128





000
SAUS44 KLCH 240354
MTRP92
METAR KP92 240353Z AUTO 01004KT 17/13 A3008 RMK AO1 SLP186 T01670128





000
SAUS44 KLCH 240354
MTRP92
METAR KP92 240353Z AUTO 01004KT 17/13 A3008 RMK AO1 SLP186 T01670128





000
SAUS44 KLCH 240255
MTRP92
METAR KP92 240253Z AUTO 01003KT 17/13 A3008 RMK AO1 SLP187 T01720133
51012





000
SAUS44 KLCH 240255
MTRP92
METAR KP92 240253Z AUTO 01003KT 17/13 A3008 RMK AO1 SLP187 T01720133
51012





000
SAUS44 KLCH 240155
MTRP92
METAR KP92 240153Z AUTO 00000KT 18/13 A3008 RMK AO1 SLP184 T01780133





000
SAUS44 KLCH 240155
MTRP92
METAR KP92 240153Z AUTO 00000KT 18/13 A3008 RMK AO1 SLP184 T01780133





000
SAUS44 KLCH 240055
MTRP92
METAR KP92 240053Z AUTO 00000KT 19/13 A3006 RMK AO1 SLP178 T01940128





000
SAUS44 KLCH 232355
MTRP92
METAR KP92 232353Z AUTO 00000KT 21/13 A3005 RMK AO1 SLP174 T02060128
10256 20206 51006





000
SAUS44 KLCH 232254
MTRP92
METAR KP92 232253Z AUTO 00000KT 22/13 A3005 RMK AO1 PRESRR SLP175
T02170128





000
SAUS44 KLCH 232155
MTRP92
METAR KP92 232153Z AUTO VRB03KT 24/12 A3003 RMK AO1 SLP169 T02390117





000
SAUS44 KLCH 232055
MTRP92
METAR KP92 232053Z AUTO 00000KT 25/11 A3003 RMK AO1 SLP168 T02500106
56014





000
SAUS44 KLCH 231955
MTRP92
METAR KP92 231953Z AUTO 36004KT 24/11 A3003 RMK AO1 SLP168 T02440106





000
SAUS44 KLCH 231955
MTRP92
METAR KP92 231953Z AUTO 36004KT 24/11 A3003 RMK AO1 SLP168 T02440106





000
SAUS44 KLCH 231855
MTRP92
METAR KP92 231853Z AUTO 00000KT 25/09 A3004 RMK AO1 SLP172 T02500094





000
SAUS44 KLCH 231855
MTRP92
METAR KP92 231853Z AUTO 00000KT 25/09 A3004 RMK AO1 SLP172 T02500094





000
SAUS44 KLCH 231755
MTRP92
METAR KP92 231753Z AUTO 01004KT 24/11 A3007 RMK AO1 SLP182 T02390106
10239 20139 58013





000
SAUS44 KLCH 231755
MTRP92
METAR KP92 231753Z AUTO 01004KT 24/11 A3007 RMK AO1 SLP182 T02390106
10239 20139 58013





000
SAUS44 KLCH 231655
MTRP92
METAR KP92 231653Z AUTO VRB03KT 23/11 A3009 RMK AO1 SLP189 T02280111





000
SAUS44 KLCH 231655
MTRP92
METAR KP92 231653Z AUTO VRB03KT 23/11 A3009 RMK AO1 SLP189 T02280111





000
SAUS44 KLCH 231555
MTRP92
METAR KP92 231553Z AUTO VRB05KT 22/13 A3009 RMK AO1 SLP189 T02170128





000
SAUS44 KLCH 231454
MTRP92
METAR KP92 231453Z AUTO VRB03KT 19/13 A3011 RMK AO1 SLP194 T01940133
53014





000
SAUS44 KLCH 231454
MTRP92
METAR KP92 231453Z AUTO VRB03KT 19/13 A3011 RMK AO1 SLP194 T01940133
53014





000
SAUS44 KLCH 231354
MTRP92
METAR KP92 231353Z AUTO 00000KT 17/13 A3009 RMK AO1 SLP189 T01670128





000
SAUS44 KLCH 231255
MTRP92
METAR KP92 231253Z AUTO VRB03KT 14/12 A3008 RMK AO1 SLP186 T01440122





000
SAUS44 KLCH 231155
MTRP92
METAR KP92 231153Z AUTO VRB03KT 14/12 A3007 RMK AO1 SLP181 60001
7//// T01390122 10172 20139 53006





000
SAUS44 KLCH 231054
MTRP92
METAR KP92 231053Z AUTO VRB03KT 14/13 A3005 RMK AO1 SLP177 P0001
T01440128





000
SAUS44 KLCH 230954
MTRP92
METAR KP92 230953Z AUTO 05003KT 15/13 A3004 RMK AO1 SLP173 T01500128





000
SAUS44 KLCH 230954
MTRP92
METAR KP92 230953Z AUTO 05003KT 15/13 A3004 RMK AO1 SLP173 T01500128





000
SAUS44 KLCH 230854
MTRP92
METAR KP92 230853Z AUTO 00000KT 16/13 A3005 RMK AO1 SLP174 T01560133
56003





000
SAUS44 KLCH 230755
MTRP92
METAR KP92 230753Z AUTO 00000KT 16/13 A3005 RMK AO1 SLP176 T01610133





000
SAUS44 KLCH 230654
MTRP92
METAR KP92 230653Z AUTO 00000KT 17/13 A3005 RMK AO1 SLP175 T01670133





000
SAUS44 KLCH 230554
MTRP92
METAR KP92 230553Z AUTO VRB03KT 17/13 A3006 RMK AO1 SLP177 T01720133
10217 20172 402780167 58003





000
SAUS44 KLCH 230554
MTRP92
METAR KP92 230553Z AUTO VRB03KT 17/13 A3006 RMK AO1 SLP177 T01720133
10217 20172 402780167 58003





000
SAUS44 KLCH 230454
MTRP92
METAR KP92 230453Z AUTO VRB03KT 18/14 A3006 RMK AO1 SLP179 T01780139





000
SAUS44 KLCH 230454
MTRP92
METAR KP92 230453Z AUTO VRB03KT 18/14 A3006 RMK AO1 SLP179 T01780139





000
SAUS44 KLCH 230354
MTRP92
METAR KP92 230353Z AUTO 00000KT 18/15 A3007 RMK AO1 SLP181 T01830150





000
SAUS44 KLCH 230354
MTRP92
METAR KP92 230353Z AUTO 00000KT 18/15 A3007 RMK AO1 SLP181 T01830150





000
SAUS44 KLCH 230255
MTRP92
METAR KP92 230253Z AUTO 00000KT 19/16 A3006 RMK AO1 SLP180 T01890156
51013





000
SAUS44 KLCH 230154
MTRP92
METAR KP92 230153Z AUTO 00000KT 19/16 A3005 RMK AO1 SLP175 T01940156





000
SAUS44 KLCH 230154
MTRP92
METAR KP92 230153Z AUTO 00000KT 19/16 A3005 RMK AO1 SLP175 T01940156





000
SAUS44 KLCH 230054
MTRP92
METAR KP92 230053Z AUTO 00000KT 21/16 A3004 RMK AO1 SLP172 T02060156





000
SAUS44 KLCH 230054
MTRP92
METAR KP92 230053Z AUTO 00000KT 21/16 A3004 RMK AO1 SLP172 T02060156





000
SAUS44 KLCH 222354
MTRP92
METAR KP92 222353Z AUTO 00000KT 22/16 A3002 RMK AO1 SLP167 T02170156
10278 20217 53006





000
SAUS44 KLCH 222354
MTRP92
METAR KP92 222353Z AUTO 00000KT 22/16 A3002 RMK AO1 SLP167 T02170156
10278 20217 53006





    US Dept of Commerce
    National Oceanic and Atmospheric Administration
    National Weather Service
    1325 East West Highway
    Silver Spring, MD 20910
    Page Author: NWS Internet Services Team
Disclaimer
Information Quality
Credits
Glossary
Privacy Policy
Freedom of Information Act (FOIA)
About Us
Career Opportunities